This is the latest recevied weather packets stored in our database for station/object KC5TIL-3. If no packets are shown the sender has not sent any weather packets the latest 1 day(s).
| Time | Temp. | Humidity | Pressure | Rain* | Wind** | Luminosity | Snow |
|---|---|---|---|---|---|---|---|
| 1778016508 | 32.78° C | 17% | 1001.8 hPa | 0 mm | 1.34 m/s, 259° | - | - |
| 1778015909 | 32.22° C | 17% | 1001.8 hPa | 0 mm | 1.79 m/s, 271° | - | - |
| 1778015611 | 32.22° C | 17% | 1001.8 hPa | 0 mm | 2.24 m/s, 208° | - | - |
| 1778015369 | 32.22° C | 17% | 1001.8 hPa | 0 mm | 1.79 m/s, 187° | - | - |
| 1778015310 | 32.22° C | 17% | 1001.8 hPa | 0 mm | 1.79 m/s, 187° | - | - |
| 1778015011 | 32.22° C | 17% | 1001.8 hPa | 0 mm | 1.79 m/s, 29° | - | - |
| 1778014704 | 31.67° C | 17% | 1001.8 hPa | 0 mm | 2.68 m/s, 223° | - | - |
| 1778014105 | 32.22° C | 18% | 1001.8 hPa | 0 mm | 1.79 m/s, 183° | - | - |
| 1778013807 | 31.67° C | 17% | 1001.8 hPa | 0 mm | 2.24 m/s, 188° | - | - |
| 1778013506 | 32.22° C | 17% | 1001.8 hPa | 0 mm | 1.79 m/s, 261° | - | - |
| 1778012909 | 31.11° C | 18% | 1001.8 hPa | 0 mm | 4.47 m/s, 235° | - | - |
| 1778012310 | 31.67° C | 18% | 1002.8 hPa | 0 mm | 1.79 m/s, 176° | - | - |
| 1778012007 | 31.67° C | 18% | 1002.8 hPa | 0 mm | 2.24 m/s, 202° | - | - |
| 1778011706 | 31.11° C | 19% | 1002.8 hPa | 0 mm | 3.13 m/s, 213° | - | - |
| 1778011407 | 31.11° C | 19% | 1002.8 hPa | 0 mm | 3.13 m/s, 198° | - | - |
| 1778011109 | 31.11° C | 19% | 1002.8 hPa | 0 mm | 3.13 m/s, 142° | - | - |
| 1778010808 | 31.67° C | 18% | 1002.8 hPa | 0 mm | 2.68 m/s, 65° | - | - |
| 1778010510 | 31.11° C | 20% | 1002.8 hPa | 0 mm | 2.68 m/s, 100° | - | - |
| 1778010212 | 30.56° C | 20% | 1002.8 hPa | 0 mm | 4.02 m/s, 184° | - | - |
| 1778009910 | 30.56° C | 20% | 1002.8 hPa | 0 mm | 4.47 m/s, 210° | - | - |
| 1778009612 | 31.11° C | 21% | 1002.8 hPa | 0 mm | 2.68 m/s, 131° | - | - |
| 1778009013 | 30.56° C | 22% | 1002.8 hPa | 0 mm | 4.47 m/s, 226° | - | - |
| 1778008417 | 30° C | 23% | 1002.8 hPa | 0 mm | 4.47 m/s, 220° | - | - |
| 1778008115 | 30.56° C | 22% | 1002.8 hPa | 0 mm | 3.13 m/s, 7° | - | - |
| 1778007812 | 30.56° C | 24% | 1002.8 hPa | 0 mm | 3.13 m/s, 206° | - | - |
* Rain latest hour (hover to see other rain measurements)
** Current wind speed in m/s (hover to see current wind gust speed)